Time;durP1;ratioP1;P1;durP2;ratioP2;P2;SDS_P1;SDS_P2;PMS_P1;PMS_P2;Temp;Humidity;BMP_temperature;BMP_pressure;BME280_temperature;BME280_humidity;BME280_pressure;Samples;Min_cycle;Max_cycle;Signal;HPM_P1;HPM_P2
2022/04/08 00:01:01;;;;;;;12.43;5.75;;;;;;;;;;5116244;28;20240;-51
2022/04/08 00:03:29;;;;;;;8.98;4.40;;;;;;;;;;5116059;28;20213;-50
2022/04/08 00:05:57;;;;;;;11.68;5.18;;;;;;;;;;5116114;28;20298;-53
2022/04/08 00:08:24;;;;;;;18.90;6.15;;;;;;;;;;5115683;28;20306;-53
2022/04/08 00:10:51;;;;;;;10.02;4.43;;;;;;;;;;5116097;28;20205;-56
2022/04/08 00:13:18;;;;;;;10.10;5.35;;;;;;;;;;5116030;28;20288;-50
2022/04/08 00:15:46;;;;;;;13.63;5.05;;;;;;;;;;5116120;27;20209;-49
2022/04/08 00:18:12;;;;;;;13.57;4.50;;;;;;;;;;5115751;28;20289;-51
2022/04/08 00:20:40;;;;;;;6.82;2.38;;;;;;;;;;5115852;28;20202;-48
2022/04/08 00:23:24;;;;;;;6.30;1.92;;;;;;;;;;5115611;28;20274;-55
2022/04/08 00:25:51;;;;;;;3.83;1.45;;;;;;;;;;5115574;28;20587;-56
2022/04/08 00:28:18;;;;;;;9.45;2.85;;;;;;;;;;5115621;28;20225;-50
2022/04/08 00:30:45;;;;;;;3.22;1.65;;;;;;;;;;5115376;28;20302;-53
2022/04/08 00:33:13;;;;;;;4.18;1.00;;;;;;;;;;5115575;28;20293;-53
2022/04/08 00:35:40;;;;;;;2.45;1.17;;;;;;;;;;5115386;28;20213;-52
2022/04/08 00:38:07;;;;;;;4.15;1.40;;;;;;;;;;5115268;28;20202;-51
2022/04/08 00:40:34;;;;;;;4.30;1.50;;;;;;;;;;5115585;28;20277;-52
2022/04/08 00:43:16;;;;;;;2.25;0.98;;;;;;;;;;5115123;28;20216;-54
2022/04/08 00:45:44;;;;;;;6.82;1.73;;;;;;;;;;5115338;28;20597;-53
2022/04/08 00:48:12;;;;;;;10.57;3.28;;;;;;;;;;5115232;28;20226;-52
2022/04/08 00:50:41;;;;;;;9.63;2.75;;;;;;;;;;5115120;28;20259;-48
2022/04/08 00:53:08;;;;;;;11.57;3.30;;;;;;;;;;5115354;28;20288;-49
2022/04/08 00:55:37;;;;;;;233.15;126.05;;;;;;;;;;5115162;28;20221;-53
2022/04/08 00:58:05;;;;;;;21.35;6.20;;;;;;;;;;5115140;28;20205;-50
2022/04/08 01:00:35;;;;;;;12.85;3.60;;;;;;;;;;5115172;28;20230;-50
2022/04/08 01:03:03;;;;;;;15.50;4.20;;;;;;;;;;5114979;28;20198;-51
2022/04/08 01:05:31;;;;;;;19.23;5.80;;;;;;;;;;5115074;28;20233;-52
2022/04/08 01:07:59;;;;;;;13.93;4.25;;;;;;;;;;5114938;28;20236;-53
2022/04/08 01:10:26;;;;;;;16.15;4.47;;;;;;;;;;5115185;28;20202;-50
2022/04/08 01:12:53;;;;;;;35.30;8.10;;;;;;;;;;5114702;28;20217;-50
2022/04/08 01:15:22;;;;;;;14.10;3.55;;;;;;;;;;5114787;28;20516;-53
2022/04/08 01:17:49;;;;;;;41.30;11.50;;;;;;;;;;5114473;28;20539;-54
2022/04/08 01:20:17;;;;;;;22.70;5.70;;;;;;;;;;5114452;28;20290;-52
2022/04/08 01:22:44;;;;;;;5.40;1.60;;;;;;;;;;5114402;28;20206;-50
2022/04/08 01:25:12;;;;;;;6.00;1.60;;;;;;;;;;5114893;28;20604;-54
2022/04/08 01:27:40;;;;;;;10.10;2.83;;;;;;;;;;5114915;28;20218;-50
2022/04/08 01:30:09;;;;;;;12.80;3.13;;;;;;;;;;5114820;28;20345;-53
2022/04/08 01:32:36;;;;;;;3.55;1.40;;;;;;;;;;5114908;28;20209;-54
2022/04/08 01:35:04;;;;;;;7.63;2.85;;;;;;;;;;5115102;28;20202;-52
2022/04/08 01:37:32;;;;;;;44.38;22.08;;;;;;;;;;5114982;28;20320;-50
2022/04/08 01:39:59;;;;;;;17.08;4.80;;;;;;;;;;5115216;28;20221;-50
2022/04/08 01:42:26;;;;;;;8.60;2.47;;;;;;;;;;5114798;28;20263;-52
2022/04/08 01:44:55;;;;;;;5.53;1.90;;;;;;;;;;5114868;28;20297;-52
2022/04/08 01:47:22;;;;;;;10.35;3.00;;;;;;;;;;5114511;28;20221;-50
2022/04/08 01:49:49;;;;;;;10.43;3.40;;;;;;;;;;5114720;28;20198;-54
2022/04/08 01:52:17;;;;;;;9.43;3.45;;;;;;;;;;5114611;28;20226;-53
2022/04/08 01:54:44;;;;;;;7.20;2.83;;;;;;;;;;5114336;28;20289;-51
2022/04/08 01:57:11;;;;;;;45.08;16.63;;;;;;;;;;5114425;28;20235;-55
2022/04/08 01:59:38;;;;;;;24.75;7.53;;;;;;;;;;5113518;28;20715;-50
2022/04/08 02:02:06;;;;;;;15.77;4.10;;;;;;;;;;5114439;28;20202;-51
2022/04/08 02:04:35;;;;;;;6.38;2.33;;;;;;;;;;5114366;28;20206;-52
2022/04/08 02:07:06;;;;;;;7.43;2.85;;;;;;;;;;5114700;28;20226;-54
2022/04/08 02:09:33;;;;;;;5.38;1.67;;;;;;;;;;5114474;28;20761;-51
2022/04/08 02:12:01;;;;;;;4.60;2.05;;;;;;;;;;5114270;28;20271;-55
2022/04/08 02:14:28;;;;;;;4.40;2.40;;;;;;;;;;5114330;28;20285;-51
2022/04/08 02:16:55;;;;;;;11.70;3.15;;;;;;;;;;5114657;28;20206;-50
2022/04/08 02:19:22;;;;;;;57.95;24.00;;;;;;;;;;5117383;28;20221;-50
2022/04/08 02:21:49;;;;;;;11.85;3.47;;;;;;;;;;5117023;28;20209;-53
2022/04/08 02:24:17;;;;;;;9.68;2.80;;;;;;;;;;5116782;28;20635;-49
2022/04/08 02:26:44;;;;;;;8.80;2.28;;;;;;;;;;5116578;28;20194;-52
2022/04/08 02:29:11;;;;;;;9.13;2.38;;;;;;;;;;5117541;28;20237;-50
2022/04/08 02:31:38;;;;;;;5.07;1.80;;;;;;;;;;5117055;28;20209;-49
2022/04/08 02:34:05;;;;;;;6.95;2.42;;;;;;;;;;5117404;28;20202;-51
2022/04/08 02:36:33;;;;;;;7.10;1.90;;;;;;;;;;5117893;27;20698;-53
2022/04/08 02:39:00;;;;;;;166.27;66.88;;;;;;;;;;5117671;28;20590;-50
2022/04/08 02:41:27;;;;;;;15.05;3.85;;;;;;;;;;5117945;28;20262;-54
2022/04/08 02:43:55;;;;;;;10.73;2.90;;;;;;;;;;5117479;28;20277;-49
2022/04/08 02:46:22;;;;;;;7.83;2.50;;;;;;;;;;5117942;28;20341;-52
2022/04/08 02:48:50;;;;;;;6.18;1.90;;;;;;;;;;5117574;28;20229;-51
2022/04/08 02:51:17;;;;;;;3.63;1.63;;;;;;;;;;5117465;28;20202;-53
2022/04/08 02:53:44;;;;;;;10.77;2.80;;;;;;;;;;5117368;28;20221;-50
2022/04/08 02:56:11;;;;;;;11.33;3.23;;;;;;;;;;5117536;28;20258;-52
2022/04/08 02:58:38;;;;;;;8.17;2.00;;;;;;;;;;5117251;28;20672;-51
2022/04/08 03:01:06;;;;;;;25.30;7.03;;;;;;;;;;5117155;28;20199;-53
2022/04/08 03:03:33;;;;;;;16.57;3.70;;;;;;;;;;5117163;28;20217;-50
2022/04/08 03:06:00;;;;;;;12.70;3.03;;;;;;;;;;5117102;28;20278;-54
2022/04/08 03:08:29;;;;;;;5.47;1.90;;;;;;;;;;5117298;28;20296;-55
2022/04/08 03:10:57;;;;;;;8.63;2.70;;;;;;;;;;5117058;27;20580;-50
2022/04/08 03:13:24;;;;;;;10.23;2.63;;;;;;;;;;5116941;28;20201;-50
2022/04/08 03:15:52;;;;;;;8.57;2.70;;;;;;;;;;5116924;28;20594;-55
2022/04/08 03:18:20;;;;;;;5.32;2.08;;;;;;;;;;5117012;28;20216;-49
2022/04/08 03:20:47;;;;;;;176.48;99.45;;;;;;;;;;5116937;27;20296;-51
2022/04/08 03:23:14;;;;;;;16.80;4.72;;;;;;;;;;5116870;28;20224;-50
2022/04/08 03:25:41;;;;;;;15.83;4.47;;;;;;;;;;5116636;28;20284;-53
2022/04/08 03:28:09;;;;;;;6.90;2.53;;;;;;;;;;5116316;28;20317;-54
2022/04/08 03:30:36;;;;;;;14.40;4.03;;;;;;;;;;5116598;28;20737;-53
2022/04/08 03:33:04;;;;;;;10.38;3.00;;;;;;;;;;5116227;28;20587;-53
2022/04/08 03:35:31;;;;;;;14.13;4.17;;;;;;;;;;5116245;28;20252;-53
2022/04/08 03:37:58;;;;;;;9.30;2.87;;;;;;;;;;5115446;28;20217;-52
2022/04/08 03:40:25;;;;;;;7.63;2.97;;;;;;;;;;5116191;28;20233;-55
2022/04/08 03:42:53;;;;;;;86.60;20.37;;;;;;;;;;5116172;28;20719;-52
2022/04/08 03:45:20;;;;;;;27.27;6.63;;;;;;;;;;5116073;28;20197;-52
2022/04/08 03:47:48;;;;;;;11.10;3.00;;;;;;;;;;5116039;28;20234;-54
2022/04/08 03:50:16;;;;;;;20.30;4.63;;;;;;;;;;5115926;28;20281;-51
2022/04/08 03:52:43;;;;;;;24.57;7.50;;;;;;;;;;5115882;28;20564;-53
2022/04/08 03:55:10;;;;;;;25.00;7.57;;;;;;;;;;5116198;28;20222;-50
2022/04/08 03:57:37;;;;;;;16.20;5.63;;;;;;;;;;5115789;28;20607;-54
2022/04/08 04:00:05;;;;;;;35.07;9.07;;;;;;;;;;5115877;28;20296;-50
2022/04/08 04:02:33;;;;;;;149.03;78.90;;;;;;;;;;5108606;28;20229;-56
2022/04/08 04:05:00;;;;;;;34.27;9.70;;;;;;;;;;5109321;28;20233;-53
2022/04/08 04:07:28;;;;;;;12.27;4.23;;;;;;;;;;5107047;28;20210;-57
2022/04/08 04:09:55;;;;;;;9.70;3.13;;;;;;;;;;5108157;28;20218;-51
2022/04/08 04:12:22;;;;;;;12.17;3.77;;;;;;;;;;5109015;27;20267;-54
2022/04/08 04:14:49;;;;;;;14.57;8.80;;;;;;;;;;5105269;28;20237;-54
2022/04/08 04:17:17;;;;;;;13.33;5.70;;;;;;;;;;5113762;27;20612;-50
2022/04/08 04:19:44;;;;;;;13.90;4.40;;;;;;;;;;5114841;28;20245;-50
2022/04/08 04:22:11;;;;;;;7.10;2.50;;;;;;;;;;5109093;28;20222;-54
2022/04/08 04:24:38;;;;;;;45.23;13.30;;;;;;;;;;5103319;28;20223;-57
2022/04/08 04:27:06;;;;;;;27.20;7.50;;;;;;;;;;5094211;28;20235;-55
2022/04/08 04:29:33;;;;;;;9.40;3.47;;;;;;;;;;5093975;28;20234;-54
2022/04/08 04:32:00;;;;;;;31.37;8.43;;;;;;;;;;5094012;28;20223;-57
2022/04/08 04:34:27;;;;;;;38.87;11.70;;;;;;;;;;5094205;28;20305;-55
2022/04/08 04:36:55;;;;;;;27.98;8.27;;;;;;;;;;5094009;28;20214;-52
2022/04/08 04:39:22;;;;;;;17.73;5.60;;;;;;;;;;5100758;28;20213;-55
2022/04/08 04:41:49;;;;;;;18.90;5.30;;;;;;;;;;5112970;28;20687;-53
2022/04/08 04:44:17;;;;;;;107.80;63.03;;;;;;;;;;5112991;28;20217;-52
2022/04/08 04:46:44;;;;;;;46.93;13.33;;;;;;;;;;5110561;28;20290;-57
2022/04/08 04:49:11;;;;;;;19.85;5.68;;;;;;;;;;5110803;27;20229;-55
2022/04/08 04:51:38;;;;;;;44.88;12.57;;;;;;;;;;5111598;28;20242;-55
2022/04/08 04:54:05;;;;;;;26.90;8.07;;;;;;;;;;5109299;27;20218;-56
2022/04/08 04:56:33;;;;;;;44.00;11.73;;;;;;;;;;5113039;28;20304;-56
2022/04/08 04:59:00;;;;;;;21.03;6.67;;;;;;;;;;5110505;27;20237;-56
2022/04/08 05:01:27;;;;;;;28.80;7.43;;;;;;;;;;5093691;28;20554;-54
2022/04/08 05:03:54;;;;;;;30.27;7.90;;;;;;;;;;5093836;28;20756;-51
2022/04/08 05:06:21;;;;;;;93.35;23.15;;;;;;;;;;5102478;28;20675;-52
2022/04/08 05:08:52;;;;;;;41.47;9.67;;;;;;;;;;5111752;27;20229;-53
2022/04/08 05:11:19;;;;;;;22.90;5.20;;;;;;;;;;5112267;28;20224;-57
2022/04/08 05:13:46;;;;;;;52.28;13.93;;;;;;;;;;5106799;28;20229;-55
2022/04/08 05:16:13;;;;;;;16.75;5.82;;;;;;;;;;5109452;28;20326;-53
2022/04/08 05:18:40;;;;;;;10.95;3.78;;;;;;;;;;5110600;28;20226;-57
2022/04/08 05:21:07;;;;;;;15.38;4.30;;;;;;;;;;5110849;28;20308;-54
2022/04/08 05:23:34;;;;;;;13.95;4.05;;;;;;;;;;5114200;28;20237;-56
2022/04/08 05:26:02;;;;;;;69.97;29.88;;;;;;;;;;5104338;28;20317;-56
2022/04/08 05:28:29;;;;;;;36.80;10.82;;;;;;;;;;5109552;28;20226;-56
2022/04/08 05:30:56;;;;;;;28.35;7.55;;;;;;;;;;5114011;28;20309;-56
2022/04/08 05:33:23;;;;;;;16.65;5.53;;;;;;;;;;5113945;28;20336;-55
2022/04/08 05:35:50;;;;;;;9.35;3.10;;;;;;;;;;5114689;28;20190;-56
2022/04/08 05:38:17;;;;;;;23.17;7.30;;;;;;;;;;5115147;28;20216;-55
2022/04/08 05:40:45;;;;;;;18.80;5.30;;;;;;;;;;5114800;28;20644;-55
2022/04/08 05:43:12;;;;;;;32.03;9.77;;;;;;;;;;5114923;28;20221;-54
2022/04/08 05:45:39;;;;;;;13.80;4.88;;;;;;;;;;5115131;28;20206;-54
2022/04/08 05:48:07;;;;;;;31.33;10.27;;;;;;;;;;5114781;28;20289;-54
2022/04/08 05:50:34;;;;;;;19.52;6.22;;;;;;;;;;5115038;28;20285;-57
2022/04/08 05:53:01;;;;;;;14.95;4.68;;;;;;;;;;5116362;28;20525;-56
2022/04/08 05:55:49;;;;;;;15.52;5.15;;;;;;;;;;5119613;27;20284;-53
2022/04/08 05:58:16;;;;;;;15.00;3.65;;;;;;;;;;5119276;28;20202;-53
2022/04/08 06:00:42;;;;;;;10.30;3.00;;;;;;;;;;5118928;28;20201;-53
2022/04/08 06:03:10;;;;;;;23.20;6.40;;;;;;;;;;5118585;28;20237;-53
2022/04/08 06:05:37;;;;;;;16.38;5.25;;;;;;;;;;5119224;27;20206;-53
2022/04/08 06:08:05;;;;;;;16.55;5.57;;;;;;;;;;5119235;28;20202;-55
2022/04/08 06:10:32;;;;;;;15.52;4.28;;;;;;;;;;5118571;28;20662;-53
2022/04/08 06:13:01;;;;;;;16.08;4.95;;;;;;;;;;5118789;28;20201;-54
2022/04/08 06:15:28;;;;;;;12.43;3.65;;;;;;;;;;5118469;28;20202;-53
2022/04/08 06:17:56;;;;;;;10.13;3.05;;;;;;;;;;5118785;28;20634;-53
2022/04/08 06:20:23;;;;;;;13.05;4.00;;;;;;;;;;5118461;28;20202;-55
2022/04/08 06:22:51;;;;;;;9.70;3.10;;;;;;;;;;5118196;28;20281;-54
2022/04/08 06:25:20;;;;;;;15.18;4.70;;;;;;;;;;5118120;28;20198;-54
2022/04/08 06:28:03;;;;;;;61.85;36.05;;;;;;;;;;5118465;28;20226;-53
2022/04/08 06:30:32;;;;;;;14.15;4.72;;;;;;;;;;5118637;28;20295;-54
2022/04/08 06:32:59;;;;;;;21.92;6.25;;;;;;;;;;5118079;28;20209;-53
2022/04/08 06:35:26;;;;;;;40.58;12.13;;;;;;;;;;5118390;28;20292;-52
2022/04/08 06:38:04;;;;;;;13.73;4.15;;;;;;;;;;5118151;28;20648;-56
2022/04/08 06:40:35;;;;;;;18.48;7.47;;;;;;;;;;5118254;28;20288;-52
2022/04/08 06:43:02;;;;;;;17.90;5.60;;;;;;;;;;5118275;28;20275;-51
2022/04/08 06:45:30;;;;;;;10.50;4.32;;;;;;;;;;5118216;28;20536;-50
2022/04/08 06:47:57;;;;;;;91.43;45.10;;;;;;;;;;5117902;28;20292;-51
2022/04/08 06:50:25;;;;;;;20.35;6.78;;;;;;;;;;5118023;28;20234;-56
2022/04/08 06:52:59;;;;;;;19.45;6.68;;;;;;;;;;5118089;28;20221;-54
2022/04/08 06:55:27;;;;;;;23.85;8.35;;;;;;;;;;5118253;28;20197;-51
2022/04/08 06:57:57;;;;;;;12.63;3.92;;;;;;;;;;5117912;28;20226;-55
2022/04/08 07:00:24;;;;;;;11.32;3.85;;;;;;;;;;5117660;28;20724;-56
2022/04/08 07:02:51;;;;;;;15.10;4.78;;;;;;;;;;5117417;28;20208;-54
2022/04/08 07:05:19;;;;;;;13.57;5.20;;;;;;;;;;5117710;28;20194;-51
2022/04/08 07:07:46;;;;;;;17.63;5.97;;;;;;;;;;5117776;28;20202;-54
2022/04/08 07:10:13;;;;;;;14.45;5.88;;;;;;;;;;5117455;28;20589;-51
2022/04/08 07:12:40;;;;;;;4.05;1.88;;;;;;;;;;5117673;28;20232;-50
2022/04/08 07:15:08;;;;;;;6.93;3.25;;;;;;;;;;5117510;28;20603;-51
2022/04/08 07:17:36;;;;;;;8.30;2.55;;;;;;;;;;5117365;28;20548;-53
2022/04/08 07:20:15;;;;;;;8.60;3.00;;;;;;;;;;5117284;28;20680;-52
2022/04/08 07:22:43;;;;;;;9.68;2.83;;;;;;;;;;5117426;28;20533;-52
2022/04/08 07:25:11;;;;;;;11.13;4.50;;;;;;;;;;5117540;28;20341;-57
2022/04/08 07:27:49;;;;;;;6.43;2.17;;;;;;;;;;5117324;28;20639;-51
2022/04/08 07:30:19;;;;;;;28.13;24.92;;;;;;;;;;5117500;28;20332;-53
2022/04/08 07:32:48;;;;;;;8.65;3.45;;;;;;;;;;5117166;27;20206;-52
2022/04/08 07:35:15;;;;;;;8.80;2.42;;;;;;;;;;5116994;28;20212;-53
2022/04/08 07:37:42;;;;;;;12.40;3.47;;;;;;;;;;5117528;28;20210;-53
2022/04/08 07:40:12;;;;;;;9.00;3.03;;;;;;;;;;5117008;28;20293;-55
2022/04/08 07:42:39;;;;;;;9.48;3.10;;;;;;;;;;5117363;28;20273;-55
2022/04/08 07:45:07;;;;;;;11.45;3.50;;;;;;;;;;5116687;28;20202;-53
2022/04/08 07:47:35;;;;;;;15.45;4.82;;;;;;;;;;5116677;28;20346;-56
2022/04/08 07:50:09;;;;;;;6.20;2.08;;;;;;;;;;5117255;28;20222;-54
2022/04/08 07:52:37;;;;;;;17.38;8.55;;;;;;;;;;5117071;28;20205;-51
2022/04/08 07:55:08;;;;;;;19.33;6.45;;;;;;;;;;5116722;28;20621;-53
2022/04/08 07:57:45;;;;;;;13.57;4.40;;;;;;;;;;5116523;28;20190;-53
2022/04/08 08:00:14;;;;;;;10.43;3.30;;;;;;;;;;5116571;28;20757;-50
2022/04/08 08:02:43;;;;;;;9.35;2.78;;;;;;;;;;5117134;28;20198;-51
2022/04/08 08:05:10;;;;;;;7.60;2.65;;;;;;;;;;5116651;28;20198;-50
2022/04/08 08:07:52;;;;;;;5.15;2.30;;;;;;;;;;5116431;28;20700;-53
2022/04/08 08:10:24;;;;;;;10.00;4.00;;;;;;;;;;5116271;27;20209;-55
2022/04/08 08:12:52;;;;;;;37.38;19.42;;;;;;;;;;5116271;28;20194;-57
2022/04/08 08:15:19;;;;;;;21.15;6.15;;;;;;;;;;5115667;28;20304;-54
2022/04/08 08:17:47;;;;;;;18.75;5.05;;;;;;;;;;5116641;28;20197;-50
2022/04/08 08:20:17;;;;;;;11.98;3.85;;;;;;;;;;5116394;28;20212;-51
2022/04/08 08:22:44;;;;;;;14.00;4.57;;;;;;;;;;5116105;28;20202;-53
2022/04/08 08:25:12;;;;;;;12.23;4.30;;;;;;;;;;5116290;28;20198;-55
2022/04/08 08:27:48;;;;;;;22.95;7.57;;;;;;;;;;5116700;28;20280;-54
2022/04/08 08:30:16;;;;;;;33.47;10.63;;;;;;;;;;5116340;28;20249;-56
2022/04/08 08:32:45;;;;;;;53.10;37.58;;;;;;;;;;5116083;28;20238;-53
2022/04/08 08:35:14;;;;;;;8.32;4.05;;;;;;;;;;5115335;28;20197;-56
2022/04/08 08:37:41;;;;;;;14.40;4.32;;;;;;;;;;5116202;28;20267;-51
2022/04/08 08:40:11;;;;;;;14.85;4.97;;;;;;;;;;5115994;28;20288;-52
2022/04/08 08:42:39;;;;;;;8.70;3.10;;;;;;;;;;5115681;28;20636;-50
2022/04/08 08:45:09;;;;;;;10.48;3.35;;;;;;;;;;5116052;28;20229;-50
2022/04/08 08:47:36;;;;;;;7.65;2.70;;;;;;;;;;5115503;28;20331;-52
2022/04/08 08:50:05;;;;;;;7.38;3.60;;;;;;;;;;5115783;28;20296;-51
2022/04/08 08:52:32;;;;;;;6.50;3.63;;;;;;;;;;5115498;28;20624;-53
2022/04/08 08:55:05;;;;;;;12.85;4.53;;;;;;;;;;5115582;28;20285;-52
2022/04/08 08:57:34;;;;;;;3.67;1.48;;;;;;;;;;5115543;28;20612;-52
2022/04/08 09:00:06;;;;;;;10.35;4.18;;;;;;;;;;5115629;28;20322;-53
2022/04/08 09:02:34;;;;;;;6.35;1.80;;;;;;;;;;5115409;28;20206;-54
2022/04/08 09:05:13;;;;;;;7.80;1.55;;;;;;;;;;5115264;28;20277;-54
2022/04/08 09:07:40;;;;;;;2.08;1.13;;;;;;;;;;5115881;28;20194;-55
2022/04/08 09:10:08;;;;;;;4.45;1.38;;;;;;;;;;5115195;28;20261;-55
2022/04/08 09:12:35;;;;;;;6.32;1.23;;;;;;;;;;5115391;28;20663;-53
2022/04/08 09:15:03;;;;;;;5.88;2.83;;;;;;;;;;5115249;28;20198;-51
2022/04/08 09:17:30;;;;;;;2.88;1.10;;;;;;;;;;5115515;28;20568;-55
2022/04/08 09:19:59;;;;;;;5.55;1.17;;;;;;;;;;5115436;28;20228;-53
2022/04/08 09:22:28;;;;;;;2.90;1.45;;;;;;;;;;5115532;28;20267;-53
2022/04/08 09:25:10;;;;;;;2.58;1.50;;;;;;;;;;5115637;28;20712;-53
2022/04/08 09:27:41;;;;;;;3.83;1.65;;;;;;;;;;5119968;28;20672;-54
2022/04/08 09:30:09;;;;;;;3.40;1.23;;;;;;;;;;5122084;27;20316;-52
2022/04/08 09:32:36;;;;;;;8.15;2.25;;;;;;;;;;5122131;27;20236;-53
2022/04/08 09:35:04;;;;;;;9.05;3.15;;;;;;;;;;5121847;27;20631;-52
2022/04/08 09:37:31;;;;;;;5.93;1.35;;;;;;;;;;5122142;27;20273;-53
2022/04/08 09:40:03;;;;;;;5.95;1.38;;;;;;;;;;5122245;27;20274;-52
2022/04/08 09:42:42;;;;;;;5.25;1.45;;;;;;;;;;5121765;27;20576;-53
2022/04/08 09:45:14;;;;;;;4.60;1.65;;;;;;;;;;5121942;27;20684;-53
2022/04/08 09:47:41;;;;;;;6.18;2.17;;;;;;;;;;5121946;27;20655;-53
2022/04/08 09:50:11;;;;;;;5.07;2.17;;;;;;;;;;5121861;27;20214;-54
2022/04/08 09:52:39;;;;;;;3.85;1.30;;;;;;;;;;5122222;27;20236;-54
2022/04/08 09:55:07;;;;;;;3.25;1.40;;;;;;;;;;5122157;27;20262;-57
2022/04/08 09:57:39;;;;;;;5.10;2.10;;;;;;;;;;5121751;27;20523;-58
2022/04/08 10:00:08;;;;;;;4.43;1.92;;;;;;;;;;5122082;27;20730;-58
2022/04/08 10:02:39;;;;;;;8.32;2.97;;;;;;;;;;5120882;28;20194;-58
2022/04/08 10:05:09;;;;;;;6.07;2.10;;;;;;;;;;5121620;27;20286;-58
2022/04/08 10:07:37;;;;;;;3.60;1.65;;;;;;;;;;5121508;27;20632;-58
2022/04/08 10:10:36;;;;;;;7.15;1.83;;;;;;;;;;5121580;27;20225;-59
2022/04/08 10:13:03;;;;;;;14.25;3.97;;;;;;;;;;5120995;28;20495;-58
2022/04/08 10:15:34;;;;;;;7.43;3.35;;;;;;;;;;5121769;27;20280;-58
2022/04/08 10:18:05;;;;;;;8.05;3.67;;;;;;;;;;5121443;27;20281;-58
2022/04/08 10:20:34;;;;;;;5.20;1.42;;;;;;;;;;5121668;27;20294;-58
2022/04/08 10:23:09;;;;;;;5.50;1.98;;;;;;;;;;5121367;27;20222;-58
2022/04/08 10:25:41;;;;;;;12.02;4.38;;;;;;;;;;5121892;27;20261;-58
2022/04/08 10:28:10;;;;;;;9.00;2.50;;;;;;;;;;5121393;27;20201;-58
2022/04/08 10:30:48;;;;;;;4.35;1.80;;;;;;;;;;5121462;27;20324;-58
2022/04/08 10:33:26;;;;;;;3.72;1.50;;;;;;;;;;5121716;27;20209;-58
2022/04/08 10:35:55;;;;;;;4.18;1.55;;;;;;;;;;5121601;27;20194;-58
2022/04/08 10:38:22;;;;;;;11.85;4.30;;;;;;;;;;5119697;27;20524;-58
2022/04/08 10:40:58;;;;;;;16.40;6.70;;;;;;;;;;5118104;28;20625;-58
2022/04/08 10:43:26;;;;;;;6.10;2.67;;;;;;;;;;5118358;28;20272;-57
2022/04/08 10:45:58;;;;;;;5.38;1.85;;;;;;;;;;5118235;28;20640;-57
2022/04/08 10:48:32;;;;;;;12.05;3.83;;;;;;;;;;5118067;28;20288;-58
2022/04/08 10:51:18;;;;;;;9.95;3.38;;;;;;;;;;5118464;28;20221;-58
2022/04/08 10:53:45;;;;;;;4.95;1.55;;;;;;;;;;5117997;28;20244;-58
2022/04/08 10:56:16;;;;;;;3.25;1.40;;;;;;;;;;5118162;28;20211;-58
2022/04/08 10:58:44;;;;;;;9.75;5.68;;;;;;;;;;5118023;28;20287;-58
2022/04/08 11:01:20;;;;;;;3.47;2.13;;;;;;;;;;5116787;28;20285;-58
2022/04/08 11:04:02;;;;;;;4.85;2.22;;;;;;;;;;5118626;28;20266;-58
2022/04/08 11:06:36;;;;;;;10.43;3.65;;;;;;;;;;5117877;28;20289;-58
2022/04/08 11:09:12;;;;;;;5.10;1.83;;;;;;;;;;5117489;28;20192;-58
2022/04/08 11:11:41;;;;;;;6.78;1.38;;;;;;;;;;5117939;28;20519;-58
2022/04/08 11:14:09;;;;;;;8.55;2.50;;;;;;;;;;5117305;28;20539;-58
2022/04/08 11:16:39;;;;;;;4.90;1.67;;;;;;;;;;5117650;28;20209;-58
2022/04/08 11:19:07;;;;;;;22.60;14.30;;;;;;;;;;5117308;28;20288;-58
2022/04/08 11:21:36;;;;;;;4.28;1.80;;;;;;;;;;5117736;28;20288;-58
2022/04/08 11:24:14;;;;;;;9.70;3.72;;;;;;;;;;5116948;28;20198;-58
2022/04/08 11:26:42;;;;;;;5.75;2.55;;;;;;;;;;5117333;28;20281;-58
2022/04/08 11:29:15;;;;;;;3.38;1.55;;;;;;;;;;5117359;28;20275;-58
2022/04/08 11:31:44;;;;;;;3.47;1.50;;;;;;;;;;5117445;27;20652;-58
2022/04/08 11:34:13;;;;;;;5.85;1.70;;;;;;;;;;5117010;28;20202;-58
2022/04/08 11:36:40;;;;;;;1.98;0.98;;;;;;;;;;5117350;28;20596;-58
2022/04/08 11:39:09;;;;;;;6.68;4.75;;;;;;;;;;5117431;27;20292;-58
2022/04/08 11:41:37;;;;;;;5.30;2.03;;;;;;;;;;5116962;28;20621;-58
2022/04/08 11:44:05;;;;;;;3.63;1.10;;;;;;;;;;5115785;28;20221;-58
2022/04/08 11:46:32;;;;;;;6.72;2.75;;;;;;;;;;5110743;27;20210;-58
2022/04/08 11:49:03;;;;;;;8.07;1.75;;;;;;;;;;5111388;28;20231;-58
2022/04/08 11:51:30;;;;;;;8.82;2.90;;;;;;;;;;5109312;27;20228;-58
2022/04/08 11:54:00;;;;;;;7.80;2.42;;;;;;;;;;5110195;28;20230;-59
2022/04/08 11:56:27;;;;;;;8.52;3.00;;;;;;;;;;5108107;27;20214;-59
2022/04/08 11:59:05;;;;;;;6.15;2.20;;;;;;;;;;5111792;28;20237;-59
2022/04/08 12:01:36;;;;;;;7.10;3.70;;;;;;;;;;5108734;27;20248;-58
2022/04/08 12:04:05;;;;;;;14.05;4.40;;;;;;;;;;5114798;28;20301;-58
2022/04/08 12:06:38;;;;;;;16.15;4.25;;;;;;;;;;5111752;28;20245;-58
2022/04/08 12:09:12;;;;;;;13.77;4.95;;;;;;;;;;5114175;28;20746;-58
2022/04/08 12:11:40;;;;;;;14.32;5.35;;;;;;;;;;5114253;27;20300;-57
2022/04/08 12:14:14;;;;;;;14.18;5.07;;;;;;;;;;5115447;28;20246;-58
2022/04/08 12:16:48;;;;;;;9.25;2.75;;;;;;;;;;5113805;28;20305;-59
2022/04/08 12:19:19;;;;;;;6.38;2.47;;;;;;;;;;5115402;28;20304;-58
2022/04/08 12:22:05;;;;;;;22.02;11.60;;;;;;;;;;5114747;27;20736;-59
2022/04/08 12:24:34;;;;;;;10.63;4.70;;;;;;;;;;5113049;28;20221;-59
2022/04/08 12:27:01;;;;;;;4.53;1.63;;;;;;;;;;5111391;27;20297;-58
2022/04/08 12:29:29;;;;;;;3.40;1.48;;;;;;;;;;5112524;28;20660;-58
2022/04/08 12:32:01;;;;;;;3.72;1.77;;;;;;;;;;5113404;27;20305;-58
2022/04/08 12:34:28;;;;;;;6.00;1.90;;;;;;;;;;5113631;28;20225;-58
2022/04/08 12:36:55;;;;;;;4.82;1.25;;;;;;;;;;5111969;27;20213;-58
2022/04/08 12:39:23;;;;;;;7.03;1.80;;;;;;;;;;5110974;28;20208;-57
2022/04/08 12:41:50;;;;;;;5.63;1.73;;;;;;;;;;5102261;28;20231;-60
2022/04/08 12:44:18;;;;;;;11.98;2.00;;;;;;;;;;5106229;28;20240;-62
2022/04/08 12:46:45;;;;;;;2.03;1.40;;;;;;;;;;5113043;27;20308;-60
2022/04/08 12:49:12;;;;;;;5.28;2.22;;;;;;;;;;5113902;28;20241;-60
2022/04/08 12:51:39;;;;;;;5.35;2.47;;;;;;;;;;5101899;27;20569;-60
2022/04/08 12:54:07;;;;;;;2.55;1.17;;;;;;;;;;5097190;28;20752;-61
2022/04/08 12:56:34;;;;;;;3.40;1.83;;;;;;;;;;5113630;27;20229;-60
2022/04/08 12:59:04;;;;;;;1.30;1.15;;;;;;;;;;5114255;28;20232;-61
2022/04/08 13:01:32;;;;;;;7.30;2.85;;;;;;;;;;5114210;27;20229;-60
2022/04/08 13:04:00;;;;;;;6.32;2.50;;;;;;;;;;5113427;28;20751;-61
2022/04/08 13:06:30;;;;;;;3.70;1.42;;;;;;;;;;5114555;27;20262;-61
2022/04/08 13:08:57;;;;;;;6.60;2.42;;;;;;;;;;5114270;28;20355;-61
2022/04/08 13:11:25;;;;;;;3.08;1.75;;;;;;;;;;5110430;27;20233;-61
2022/04/08 13:13:52;;;;;;;12.07;3.78;;;;;;;;;;5114185;28;20321;-59
2022/04/08 13:16:20;;;;;;;8.73;3.63;;;;;;;;;;5114153;27;20318;-61
2022/04/08 13:18:47;;;;;;;8.63;3.22;;;;;;;;;;5114358;28;20222;-60
2022/04/08 13:21:15;;;;;;;5.55;2.00;;;;;;;;;;5114466;27;20229;-61
2022/04/08 13:23:42;;;;;;;17.87;14.23;;;;;;;;;;5113879;27;20276;-60
2022/04/08 13:26:09;;;;;;;4.37;2.33;;;;;;;;;;5111906;28;20221;-60
2022/04/08 13:28:37;;;;;;;8.33;2.23;;;;;;;;;;5113854;27;20233;-60
2022/04/08 13:31:04;;;;;;;6.80;2.70;;;;;;;;;;5114509;28;20253;-61
2022/04/08 13:33:31;;;;;;;8.10;2.40;;;;;;;;;;5113588;27;20222;-62
2022/04/08 13:36:00;;;;;;;5.87;2.50;;;;;;;;;;5111794;28;20695;-62
2022/04/08 13:38:28;;;;;;;5.28;1.83;;;;;;;;;;5113545;27;20664;-63
2022/04/08 13:40:55;;;;;;;3.60;1.55;;;;;;;;;;5113827;28;20283;-62
2022/04/08 13:43:22;;;;;;;2.38;1.55;;;;;;;;;;5114075;27;20578;-63
2022/04/08 13:45:49;;;;;;;19.50;7.90;;;;;;;;;;5114163;28;20255;-63
2022/04/08 13:48:16;;;;;;;12.25;3.85;;;;;;;;;;5113939;27;20226;-63
2022/04/08 13:50:43;;;;;;;8.02;3.05;;;;;;;;;;5113965;28;20222;-63
2022/04/08 13:53:11;;;;;;;7.20;2.67;;;;;;;;;;5113064;28;20313;-62
2022/04/08 13:55:38;;;;;;;10.70;3.17;;;;;;;;;;5110969;28;20230;-60
2022/04/08 13:58:05;;;;;;;9.50;3.30;;;;;;;;;;5092993;28;20309;-60
2022/04/08 14:00:33;;;;;;;7.65;3.00;;;;;;;;;;5093678;28;20317;-60
2022/04/08 14:03:00;;;;;;;7.40;2.30;;;;;;;;;;5093478;28;20223;-60
2022/04/08 14:05:27;;;;;;;21.27;14.23;;;;;;;;;;5093610;28;20279;-60
2022/04/08 14:07:55;;;;;;;10.32;4.47;;;;;;;;;;5096094;28;20305;-62
2022/04/08 14:10:22;;;;;;;9.38;3.30;;;;;;;;;;5112902;28;20240;-62
2022/04/08 14:12:49;;;;;;;13.70;4.35;;;;;;;;;;5113364;27;20252;-61
2022/04/08 14:15:16;;;;;;;8.98;3.15;;;;;;;;;;5116288;27;20218;-59
2022/04/08 14:17:51;;;;;;;9.18;3.38;;;;;;;;;;5117554;27;20233;-61
2022/04/08 14:20:19;;;;;;;5.68;2.63;;;;;;;;;;5117881;28;20748;-62
2022/04/08 14:22:46;;;;;;;3.47;1.40;;;;;;;;;;5117532;27;20275;-61
2022/04/08 14:25:13;;;;;;;17.38;10.93;;;;;;;;;;5117155;28;20256;-61
2022/04/08 14:27:58;;;;;;;7.00;3.13;;;;;;;;;;5096739;28;20253;-62
2022/04/08 14:30:25;;;;;;;1.48;1.23;;;;;;;;;;5097203;28;20242;-59
2022/04/08 14:32:53;;;;;;;1.20;1.05;;;;;;;;;;5096602;28;20684;-61
2022/04/08 14:35:20;;;;;;;8.75;3.28;;;;;;;;;;5096540;28;20237;-62
2022/04/08 14:37:47;;;;;;;9.45;3.50;;;;;;;;;;5113909;28;20221;-63
2022/04/08 14:40:15;;;;;;;6.63;2.70;;;;;;;;;;5097478;28;20555;-63
2022/04/08 14:42:42;;;;;;;7.93;3.13;;;;;;;;;;5108821;28;20218;-63
2022/04/08 14:45:09;;;;;;;6.40;2.30;;;;;;;;;;5102331;28;20222;-62